sensor_id;sensor_type;location;lat;lon;timestamp;pressure;altitude;pressure_sealevel;temperature;humidity
55263;BME280;41125;48.752;9.168;2023-07-20T00:00:28;96743.03;;;18.46;53.04
55263;BME280;41125;48.752;9.168;2023-07-20T00:01:00;96735.59;;;18.47;52.08
55263;BME280;41125;48.752;9.168;2023-07-20T00:01:31;96745.34;;;18.44;52.87
55263;BME280;41125;48.752;9.168;2023-07-20T00:02:03;96739.84;;;18.44;53.06
55263;BME280;41125;48.752;9.168;2023-07-20T00:02:36;96744.88;;;18.42;52.72
55263;BME280;41125;48.752;9.168;2023-07-20T00:03:14;96741.34;;;18.41;52.82
55263;BME280;41125;48.752;9.168;2023-07-20T00:03:49;96731.84;;;18.39;52.65
55263;BME280;41125;48.752;9.168;2023-07-20T00:04:25;96729.44;;;18.37;52.06
55263;BME280;41125;48.752;9.168;2023-07-20T00:04:56;96737.34;;;18.39;52.44
55263;BME280;41125;48.752;9.168;2023-07-20T00:05:28;96741.22;;;18.38;52.57
55263;BME280;41125;48.752;9.168;2023-07-20T00:05:59;96741.22;;;18.38;52.67
55263;BME280;41125;48.752;9.168;2023-07-20T00:06:30;96742.47;;;18.40;52.87
55263;BME280;41125;48.752;9.168;2023-07-20T00:07:01;96733.00;;;18.38;51.47
55263;BME280;41125;48.752;9.168;2023-07-20T00:07:33;96734.13;;;18.37;51.79
55263;BME280;41125;48.752;9.168;2023-07-20T00:08:06;96737.25;;;18.35;51.67
55263;BME280;41125;48.752;9.168;2023-07-20T00:08:37;96740.34;;;18.34;51.99
55263;BME280;41125;48.752;9.168;2023-07-20T00:09:08;96734.84;;;18.34;51.63
55263;BME280;41125;48.752;9.168;2023-07-20T00:09:39;96734.06;;;18.33;51.45
55263;BME280;41125;48.752;9.168;2023-07-20T00:10:11;96741.84;;;18.31;51.84
55263;BME280;41125;48.752;9.168;2023-07-20T00:10:42;96742.75;;;18.35;52.25
55263;BME280;41125;48.752;9.168;2023-07-20T00:11:13;96738.06;;;18.36;51.22
55263;BME280;41125;48.752;9.168;2023-07-20T00:11:49;96736.88;;;18.37;51.83
55263;BME280;41125;48.752;9.168;2023-07-20T00:12:21;96728.41;;;18.42;51.52
55263;BME280;41125;48.752;9.168;2023-07-20T00:12:52;96735.94;;;18.45;51.42
55263;BME280;41125;48.752;9.168;2023-07-20T00:13:24;96734.13;;;18.49;50.88
55263;BME280;41125;48.752;9.168;2023-07-20T00:13:58;96736.06;;;18.49;51.46
55263;BME280;41125;48.752;9.168;2023-07-20T00:14:30;96732.84;;;18.47;51.49
55263;BME280;41125;48.752;9.168;2023-07-20T00:15:03;96734.81;;;18.46;51.44
55263;BME280;41125;48.752;9.168;2023-07-20T00:15:35;96728.06;;;18.43;50.87
55263;BME280;41125;48.752;9.168;2023-07-20T00:16:07;96739.03;;;18.43;51.33
55263;BME280;41125;48.752;9.168;2023-07-20T00:16:38;96729.56;;;18.41;50.80
55263;BME280;41125;48.752;9.168;2023-07-20T00:17:09;96724.75;;;18.38;50.36
55263;BME280;41125;48.752;9.168;2023-07-20T00:17:40;96728.63;;;18.37;51.10
55263;BME280;41125;48.752;9.168;2023-07-20T00:18:12;96725.47;;;18.35;50.80
55263;BME280;41125;48.752;9.168;2023-07-20T00:18:44;96727.94;;;18.40;51.10
55263;BME280;41125;48.752;9.168;2023-07-20T00:19:15;96724.50;;;18.43;50.76
55263;BME280;41125;48.752;9.168;2023-07-20T00:19:47;96726.47;;;18.42;50.95
55263;BME280;41125;48.752;9.168;2023-07-20T00:20:18;96735.03;;;18.41;50.35
55263;BME280;41125;48.752;9.168;2023-07-20T00:20:49;96730.25;;;18.38;50.53
55263;BME280;41125;48.752;9.168;2023-07-20T00:21:21;96730.97;;;18.35;50.38
55263;BME280;41125;48.752;9.168;2023-07-20T00:21:54;96733.25;;;18.33;51.21
55263;BME280;41125;48.752;9.168;2023-07-20T00:22:25;96731.75;;;18.35;51.02
55263;BME280;41125;48.752;9.168;2023-07-20T00:22:57;96729.81;;;18.36;50.51
55263;BME280;41125;48.752;9.168;2023-07-20T00:23:29;96730.25;;;18.38;50.95
55263;BME280;41125;48.752;9.168;2023-07-20T00:24:00;96735.31;;;18.36;50.32
55263;BME280;41125;48.752;9.168;2023-07-20T00:24:31;96731.66;;;18.32;50.13
55263;BME280;41125;48.752;9.168;2023-07-20T00:25:04;96727.75;;;18.33;50.97
55263;BME280;41125;48.752;9.168;2023-07-20T00:25:35;96735.66;;;18.34;51.07
55263;BME280;41125;48.752;9.168;2023-07-20T00:26:07;96734.84;;;18.34;50.83
55263;BME280;41125;48.752;9.168;2023-07-20T00:26:38;96732.78;;;18.31;50.67
55263;BME280;41125;48.752;9.168;2023-07-20T00:27:12;96726.84;;;18.29;50.54
55263;BME280;41125;48.752;9.168;2023-07-20T00:27:43;96732.22;;;18.25;50.36
55263;BME280;41125;48.752;9.168;2023-07-20T00:28:14;96737.63;;;18.22;50.56
55263;BME280;41125;48.752;9.168;2023-07-20T00:28:46;96732.81;;;18.19;50.64
55263;BME280;41125;48.752;9.168;2023-07-20T00:29:17;96736.25;;;18.16;50.90
55263;BME280;41125;48.752;9.168;2023-07-20T00:29:49;96728.69;;;18.13;51.09
55263;BME280;41125;48.752;9.168;2023-07-20T00:30:20;96733.50;;;18.16;51.46
55263;BME280;41125;48.752;9.168;2023-07-20T00:30:51;96730.75;;;18.16;50.84
55263;BME280;41125;48.752;9.168;2023-07-20T00:31:22;96727.19;;;18.15;50.85
55263;BME280;41125;48.752;9.168;2023-07-20T00:31:54;96737.38;;;18.15;51.04
55263;BME280;41125;48.752;9.168;2023-07-20T00:32:25;96728.69;;;18.13;51.12
55263;BME280;41125;48.752;9.168;2023-07-20T00:32:56;96731.78;;;18.11;51.36
55263;BME280;41125;48.752;9.168;2023-07-20T00:33:28;96735.66;;;18.10;51.37
55263;BME280;41125;48.752;9.168;2023-07-20T00:33:59;96733.72;;;18.11;51.21
55263;BME280;41125;48.752;9.168;2023-07-20T00:34:30;96719.53;;;18.08;51.07
55263;BME280;41125;48.752;9.168;2023-07-20T00:35:02;96726.97;;;18.08;51.05
55263;BME280;41125;48.752;9.168;2023-07-20T00:35:34;96737.97;;;18.08;51.08
55263;BME280;41125;48.752;9.168;2023-07-20T00:36:06;96737.84;;;18.04;51.60
55263;BME280;41125;48.752;9.168;2023-07-20T00:36:38;96730.87;;;18.07;51.79
55263;BME280;41125;48.752;9.168;2023-07-20T00:37:09;96732.47;;;18.08;50.94
55263;BME280;41125;48.752;9.168;2023-07-20T00:37:40;96738.75;;;18.08;51.47
55263;BME280;41125;48.752;9.168;2023-07-20T00:38:11;96737.50;;;18.06;51.33
55263;BME280;41125;48.752;9.168;2023-07-20T00:38:43;96732.69;;;18.03;50.97
55263;BME280;41125;48.752;9.168;2023-07-20T00:39:14;96732.28;;;18.01;50.88
55263;BME280;41125;48.752;9.168;2023-07-20T00:39:45;96727.47;;;17.98;51.03
55263;BME280;41125;48.752;9.168;2023-07-20T00:40:16;96732.84;;;17.94;51.06
55263;BME280;41125;48.752;9.168;2023-07-20T00:40:48;96740.63;;;17.92;51.51
55263;BME280;41125;48.752;9.168;2023-07-20T00:41:20;96736.28;;;17.91;51.76
55263;BME280;41125;48.752;9.168;2023-07-20T00:41:51;96740.16;;;17.90;52.06
55263;BME280;41125;48.752;9.168;2023-07-20T00:42:23;96744.06;;;17.89;51.71
55263;BME280;41125;48.752;9.168;2023-07-20T00:42:54;96739.69;;;17.88;51.94
55263;BME280;41125;48.752;9.168;2023-07-20T00:43:25;96746.34;;;17.87;51.60
55263;BME280;41125;48.752;9.168;2023-07-20T00:43:56;96742.00;;;17.86;51.77
55263;BME280;41125;48.752;9.168;2023-07-20T00:44:29;96739.59;;;17.85;51.38
55263;BME280;41125;48.752;9.168;2023-07-20T00:45:00;96745.41;;;17.83;51.54
55263;BME280;41125;48.752;9.168;2023-07-20T00:45:33;96743.34;;;17.80;52.54
55263;BME280;41125;48.752;9.168;2023-07-20T00:46:05;96742.44;;;17.76;52.78
55263;BME280;41125;48.752;9.168;2023-07-20T00:46:37;96745.87;;;17.73;53.18
55263;BME280;41125;48.752;9.168;2023-07-20T00:47:08;96753.63;;;17.71;53.63
55263;BME280;41125;48.752;9.168;2023-07-20T00:47:40;96748.50;;;17.69;53.85
55263;BME280;41125;48.752;9.168;2023-07-20T00:48:12;96742.09;;;17.65;54.07
55263;BME280;41125;48.752;9.168;2023-07-20T00:48:45;96747.44;;;17.62;54.39
55263;BME280;41125;48.752;9.168;2023-07-20T00:49:16;96752.00;;;17.58;55.06
55263;BME280;41125;48.752;9.168;2023-07-20T00:49:52;96763.66;;;17.55;54.77
55263;BME280;41125;48.752;9.168;2023-07-20T00:50:25;96756.31;;;17.47;54.15
55263;BME280;41125;48.752;9.168;2023-07-20T00:50:58;96751.84;;;17.42;53.54
55263;BME280;41125;48.752;9.168;2023-07-20T00:51:31;96754.47;;;17.38;54.05
55263;BME280;41125;48.752;9.168;2023-07-20T00:52:04;96761.78;;;17.34;54.55
55263;BME280;41125;48.752;9.168;2023-07-20T00:52:42;96757.44;;;17.33;54.68
55263;BME280;41125;48.752;9.168;2023-07-20T00:53:14;96758.12;;;17.30;55.28
55263;BME280;41125;48.752;9.168;2023-07-20T00:53:45;96767.50;;;17.29;55.50
55263;BME280;41125;48.752;9.168;2023-07-20T00:54:17;96759.28;;;17.29;55.25
55263;BME280;41125;48.752;9.168;2023-07-20T00:54:49;96764.31;;;17.27;56.47
55263;BME280;41125;48.752;9.168;2023-07-20T00:55:20;96761.91;;;17.26;56.35
55263;BME280;41125;48.752;9.168;2023-07-20T00:55:52;96764.97;;;17.24;56.08
55263;BME280;41125;48.752;9.168;2023-07-20T00:56:23;96764.03;;;17.20;55.87
55263;BME280;41125;48.752;9.168;2023-07-20T00:56:55;96768.72;;;17.20;56.07
55263;BME280;41125;48.752;9.168;2023-07-20T00:57:26;96767.47;;;17.17;56.53
55263;BME280;41125;48.752;9.168;2023-07-20T00:57:59;96770.19;;;17.17;56.23
55263;BME280;41125;48.752;9.168;2023-07-20T00:58:31;96767.00;;;17.15;55.83
55263;BME280;41125;48.752;9.168;2023-07-20T00:59:03;96768.59;;;17.16;55.84
55263;BME280;41125;48.752;9.168;2023-07-20T00:59:38;96767.47;;;17.17;56.62
55263;BME280;41125;48.752;9.168;2023-07-20T01:00:11;96767.00;;;17.15;56.71
55263;BME280;41125;48.752;9.168;2023-07-20T01:00:42;96770.88;;;17.14;56.79
55263;BME280;41125;48.752;9.168;2023-07-20T01:01:14;96767.66;;;17.12;56.48
55263;BME280;41125;48.752;9.168;2023-07-20T01:01:45;96766.06;;;17.11;55.81
55263;BME280;41125;48.752;9.168;2023-07-20T01:02:16;96765.12;;;17.07;56.25
55263;BME280;41125;48.752;9.168;2023-07-20T01:02:48;96776.09;;;17.07;57.23
55263;BME280;41125;48.752;9.168;2023-07-20T01:03:20;96765.00;;;17.03;56.45
55263;BME280;41125;48.752;9.168;2023-07-20T01:03:51;96771.28;;;17.04;56.76
55263;BME280;41125;48.752;9.168;2023-07-20T01:04:22;96768.56;;;17.04;56.55
55263;BME280;41125;48.752;9.168;2023-07-20T01:04:55;96770.81;;;17.02;56.68
55263;BME280;41125;48.752;9.168;2023-07-20T01:05:36;96771.63;;;17.02;56.30
55263;BME280;41125;48.752;9.168;2023-07-20T01:06:41;96766.47;;;17.01;56.84
55263;BME280;41125;48.752;9.168;2023-07-20T01:07:26;96775.41;;;16.98;56.89
55263;BME280;41125;48.752;9.168;2023-07-20T01:08:14;96772.66;;;16.98;56.63
55263;BME280;41125;48.752;9.168;2023-07-20T01:09:19;96766.72;;;16.96;56.03
55263;BME280;41125;48.752;9.168;2023-07-20T01:10:08;96771.88;;;16.97;56.23
55263;BME280;41125;48.752;9.168;2023-07-20T01:10:56;96771.41;;;16.95;57.54
55263;BME280;41125;48.752;9.168;2023-07-20T01:12:47;96773.19;;;16.91;57.45
55263;BME280;41125;48.752;9.168;2023-07-20T01:13:18;96777.87;;;16.91;57.58
55263;BME280;41125;48.752;9.168;2023-07-20T01:13:51;96772.41;;;16.91;57.34
55263;BME280;41125;48.752;9.168;2023-07-20T01:14:23;96769.66;;;16.91;57.12
55263;BME280;41125;48.752;9.168;2023-07-20T01:14:56;96774.00;;;16.92;56.60
55263;BME280;41125;48.752;9.168;2023-07-20T01:15:28;96760.97;;;16.89;56.32
55263;BME280;41125;48.752;9.168;2023-07-20T01:16:02;96771.72;;;16.94;56.37
55263;BME280;41125;48.752;9.168;2023-07-20T01:16:34;96764.66;;;16.93;56.40
55263;BME280;41125;48.752;9.168;2023-07-20T01:17:06;96767.06;;;16.94;56.86
55263;BME280;41125;48.752;9.168;2023-07-20T01:17:37;96771.72;;;16.94;56.85
55263;BME280;41125;48.752;9.168;2023-07-20T01:18:08;96771.72;;;16.94;56.98
55263;BME280;41125;48.752;9.168;2023-07-20T01:18:39;96772.88;;;16.93;57.74
55263;BME280;41125;48.752;9.168;2023-07-20T01:19:13;96774.69;;;16.89;58.44
55263;BME280;41125;48.752;9.168;2023-07-20T01:19:45;96776.16;;;16.86;57.90
55263;BME280;41125;48.752;9.168;2023-07-20T01:20:18;96773.75;;;16.85;58.15
55263;BME280;41125;48.752;9.168;2023-07-20T01:20:51;96770.53;;;16.83;57.47
55263;BME280;41125;48.752;9.168;2023-07-20T01:21:32;96767.31;;;16.81;57.74
55263;BME280;41125;48.752;9.168;2023-07-20T01:24:44;96768.13;;;16.81;57.29
55263;BME280;41125;48.752;9.168;2023-07-20T01:26:00;96772.81;;;16.81;58.29
55263;BME280;41125;48.752;9.168;2023-07-20T01:28:48;96771.06;;;16.76;58.94
55263;BME280;41125;48.752;9.168;2023-07-20T01:31:25;96774.12;;;16.74;58.62
55263;BME280;41125;48.752;9.168;2023-07-20T01:31:57;96770.25;;;16.75;57.79
55263;BME280;41125;48.752;9.168;2023-07-20T01:32:29;96772.66;;;16.77;57.99
55263;BME280;41125;48.752;9.168;2023-07-20T01:33:02;96765.72;;;16.80;58.01
55263;BME280;41125;48.752;9.168;2023-07-20T01:33:34;96758.78;;;16.82;57.43
55263;BME280;41125;48.752;9.168;2023-07-20T01:34:08;96765.19;;;16.86;57.17
55263;BME280;41125;48.752;9.168;2023-07-20T01:34:43;96763.72;;;16.89;56.67
55263;BME280;41125;48.752;9.168;2023-07-20T01:35:16;96765.31;;;16.90;56.38
55263;BME280;41125;48.752;9.168;2023-07-20T01:35:55;96766.91;;;16.91;56.72
55263;BME280;41125;48.752;9.168;2023-07-20T01:36:30;96761.44;;;16.91;56.30
55263;BME280;41125;48.752;9.168;2023-07-20T01:37:05;96762.25;;;16.91;56.82
55263;BME280;41125;48.752;9.168;2023-07-20T01:37:38;96770.13;;;16.93;56.51
55263;BME280;41125;48.752;9.168;2023-07-20T01:38:12;96758.81;;;16.94;56.64
55263;BME280;41125;48.752;9.168;2023-07-20T01:38:44;96761.56;;;16.94;56.47
55263;BME280;41125;48.752;9.168;2023-07-20T01:39:16;96753.00;;;16.96;56.01
55263;BME280;41125;48.752;9.168;2023-07-20T01:39:49;96757.69;;;16.95;56.24
55263;BME280;41125;48.752;9.168;2023-07-20T01:40:22;96760.91;;;16.97;56.06
55263;BME280;41125;48.752;9.168;2023-07-20T01:40:55;96762.47;;;16.98;56.38
55263;BME280;41125;48.752;9.168;2023-07-20T01:41:27;96758.59;;;16.99;56.51
55263;BME280;41125;48.752;9.168;2023-07-20T01:41:58;96755.50;;;17.01;56.21
55263;BME280;41125;48.752;9.168;2023-07-20T01:42:31;96759.53;;;17.03;56.24
55263;BME280;41125;48.752;9.168;2023-07-20T01:43:02;96761.13;;;17.04;56.15
55263;BME280;41125;48.752;9.168;2023-07-20T01:43:34;96754.84;;;17.04;55.89
55263;BME280;41125;48.752;9.168;2023-07-20T01:44:05;96756.44;;;17.05;55.73
55263;BME280;41125;48.752;9.168;2023-07-20T01:44:38;96761.94;;;17.05;55.81
55263;BME280;41125;48.752;9.168;2023-07-20T01:45:10;96754.16;;;17.07;56.08
55263;BME280;41125;48.752;9.168;2023-07-20T01:45:41;96759.66;;;17.07;55.71
55263;BME280;41125;48.752;9.168;2023-07-20T01:46:12;96758.06;;;17.06;55.77
55263;BME280;41125;48.752;9.168;2023-07-20T01:46:43;96752.69;;;17.09;56.42
55263;BME280;41125;48.752;9.168;2023-07-20T01:47:14;96750.28;;;17.08;55.75
55263;BME280;41125;48.752;9.168;2023-07-20T01:47:46;96750.28;;;17.08;55.97
55263;BME280;41125;48.752;9.168;2023-07-20T01:48:17;96749.50;;;17.07;55.97
55263;BME280;41125;48.752;9.168;2023-07-20T01:48:48;96759.66;;;17.07;55.85
55263;BME280;41125;48.752;9.168;2023-07-20T01:49:19;96752.56;;;17.06;55.80
55263;BME280;41125;48.752;9.168;2023-07-20T01:49:51;96748.22;;;17.05;56.00
55263;BME280;41125;48.752;9.168;2023-07-20T01:50:22;96750.50;;;17.03;56.10
55263;BME280;41125;48.752;9.168;2023-07-20T01:50:53;96750.03;;;17.01;55.96
55263;BME280;41125;48.752;9.168;2023-07-20T01:51:26;96752.31;;;16.99;56.02
55263;BME280;41125;48.752;9.168;2023-07-20T01:51:57;96753.91;;;17.00;56.17
55263;BME280;41125;48.752;9.168;2023-07-20T01:52:28;96757.78;;;16.99;56.17
55263;BME280;41125;48.752;9.168;2023-07-20T01:53:01;96749.13;;;16.97;56.44
55263;BME280;41125;48.752;9.168;2023-07-20T01:53:32;96759.97;;;16.93;57.24
55263;BME280;41125;48.752;9.168;2023-07-20T01:54:05;96757.56;;;16.92;57.70
55263;BME280;41125;48.752;9.168;2023-07-20T01:54:36;96755.50;;;16.89;57.40
55263;BME280;41125;48.752;9.168;2023-07-20T01:55:09;96753.87;;;16.88;56.99
55263;BME280;41125;48.752;9.168;2023-07-20T01:55:40;96753.41;;;16.86;56.91
55263;BME280;41125;48.752;9.168;2023-07-20T01:56:15;96758.09;;;16.85;57.09
55263;BME280;41125;48.752;9.168;2023-07-20T01:56:46;96753.41;;;16.86;56.96
55263;BME280;41125;48.752;9.168;2023-07-20T01:57:17;96756.16;;;16.86;57.04
55263;BME280;41125;48.752;9.168;2023-07-20T01:57:49;96751.00;;;16.84;57.29
55263;BME280;41125;48.752;9.168;2023-07-20T01:58:20;96754.87;;;16.83;57.29
55263;BME280;41125;48.752;9.168;2023-07-20T01:58:51;96761.97;;;16.84;57.40
55263;BME280;41125;48.752;9.168;2023-07-20T01:59:22;96765.06;;;16.83;57.80
55263;BME280;41125;48.752;9.168;2023-07-20T01:59:54;96749.28;;;16.80;56.93
55263;BME280;41125;48.752;9.168;2023-07-20T02:00:26;96755.56;;;16.80;57.14
55263;BME280;41125;48.752;9.168;2023-07-20T02:00:57;96754.75;;;16.80;57.83
55263;BME280;41125;48.752;9.168;2023-07-20T02:01:28;96757.50;;;16.80;57.44
55263;BME280;41125;48.752;9.168;2023-07-20T02:02:00;96753.97;;;16.79;57.00
55263;BME280;41125;48.752;9.168;2023-07-20T02:02:32;96756.22;;;16.77;57.00
55263;BME280;41125;48.752;9.168;2023-07-20T02:03:03;96753.16;;;16.79;56.92
55263;BME280;41125;48.752;9.168;2023-07-20T02:03:34;96757.16;;;16.81;57.49
55263;BME280;41125;48.752;9.168;2023-07-20T02:04:06;96756.84;;;16.83;57.00
55263;BME280;41125;48.752;9.168;2023-07-20T02:04:37;96750.88;;;16.81;56.91
55263;BME280;41125;48.752;9.168;2023-07-20T02:05:09;96754.44;;;16.81;56.88
55263;BME280;41125;48.752;9.168;2023-07-20T02:05:43;96753.63;;;16.81;56.79
55263;BME280;41125;48.752;9.168;2023-07-20T02:06:15;96757.16;;;16.81;56.83
55263;BME280;41125;48.752;9.168;2023-07-20T02:06:46;96754.75;;;16.80;56.81
55263;BME280;41125;48.752;9.168;2023-07-20T02:07:17;96756.69;;;16.79;57.15
55263;BME280;41125;48.752;9.168;2023-07-20T02:07:48;96757.84;;;16.78;57.10
55263;BME280;41125;48.752;9.168;2023-07-20T02:08:19;96764.91;;;16.79;57.40
55263;BME280;41125;48.752;9.168;2023-07-20T02:08:51;96760.25;;;16.80;57.47
55263;BME280;41125;48.752;9.168;2023-07-20T02:09:23;96757.03;;;16.78;57.17
55263;BME280;41125;48.752;9.168;2023-07-20T02:09:56;96760.91;;;16.77;57.10
55263;BME280;41125;48.752;9.168;2023-07-20T02:10:27;96758.50;;;16.75;57.26
55263;BME280;41125;48.752;9.168;2023-07-20T02:10:58;96757.69;;;16.74;57.43
55263;BME280;41125;48.752;9.168;2023-07-20T02:11:29;96761.56;;;16.73;57.09
55263;BME280;41125;48.752;9.168;2023-07-20T02:12:01;96754.50;;;16.72;57.05
55263;BME280;41125;48.752;9.168;2023-07-20T02:12:32;96766.59;;;16.71;57.46
55263;BME280;41125;48.752;9.168;2023-07-20T02:13:03;96765.31;;;16.69;57.36
55263;BME280;41125;48.752;9.168;2023-07-20T02:13:34;96772.75;;;16.68;57.63
55263;BME280;41125;48.752;9.168;2023-07-20T02:14:06;96770.31;;;16.67;57.70
55263;BME280;41125;48.752;9.168;2023-07-20T02:14:37;96762.91;;;16.67;57.55
55263;BME280;41125;48.752;9.168;2023-07-20T02:15:09;96764.03;;;16.66;57.31
55263;BME280;41125;48.752;9.168;2023-07-20T02:15:41;96769.53;;;16.66;57.48
55263;BME280;41125;48.752;9.168;2023-07-20T02:16:13;96767.91;;;16.65;57.68
55263;BME280;41125;48.752;9.168;2023-07-20T02:16:46;96760.84;;;16.64;57.42
55263;BME280;41125;48.752;9.168;2023-07-20T02:17:18;96758.09;;;16.64;58.01
55263;BME280;41125;48.752;9.168;2023-07-20T02:17:49;96766.66;;;16.63;58.07
55263;BME280;41125;48.752;9.168;2023-07-20T02:18:24;96770.53;;;16.62;58.57
55263;BME280;41125;48.752;9.168;2023-07-20T02:18:55;96778.28;;;16.60;59.21
55263;BME280;41125;48.752;9.168;2023-07-20T02:19:29;96770.37;;;16.58;58.62
55263;BME280;41125;48.752;9.168;2023-07-20T02:20:01;96782.47;;;16.57;59.55
55263;BME280;41125;48.752;9.168;2023-07-20T02:20:32;96771.06;;;16.55;59.09
55263;BME280;41125;48.752;9.168;2023-07-20T02:21:03;96776.53;;;16.55;59.01
55263;BME280;41125;48.752;9.168;2023-07-20T02:21:36;96779.59;;;16.54;59.30
55263;BME280;41125;48.752;9.168;2023-07-20T02:22:07;96782.69;;;16.52;59.20
55263;BME280;41125;48.752;9.168;2023-07-20T02:22:39;96770.91;;;16.52;58.64
55263;BME280;41125;48.752;9.168;2023-07-20T02:23:14;96766.25;;;16.52;58.59
55263;BME280;41125;48.752;9.168;2023-07-20T02:23:45;96768.97;;;16.52;58.44
55263;BME280;41125;48.752;9.168;2023-07-20T02:24:17;96770.91;;;16.52;58.48
55263;BME280;41125;48.752;9.168;2023-07-20T02:24:49;96768.97;;;16.52;58.17
55263;BME280;41125;48.752;9.168;2023-07-20T02:25:21;96766.25;;;16.52;58.65
55263;BME280;41125;48.752;9.168;2023-07-20T02:25:52;96764.63;;;16.51;58.62
55263;BME280;41125;48.752;9.168;2023-07-20T02:26:24;96772.38;;;16.49;59.56
55263;BME280;41125;48.752;9.168;2023-07-20T02:26:57;96765.31;;;16.48;59.46
55263;BME280;41125;48.752;9.168;2023-07-20T02:27:28;96773.06;;;16.46;60.49
55263;BME280;41125;48.752;9.168;2023-07-20T02:28:03;96780.78;;;16.44;60.68
55263;BME280;41125;48.752;9.168;2023-07-20T02:28:35;96774.84;;;16.42;60.70
55263;BME280;41125;48.752;9.168;2023-07-20T02:29:10;96770.50;;;16.41;60.43
55263;BME280;41125;48.752;9.168;2023-07-20T02:29:43;96771.97;;;16.38;60.98
55263;BME280;41125;48.752;9.168;2023-07-20T02:30:14;96778.91;;;16.36;61.30
55263;BME280;41125;48.752;9.168;2023-07-20T02:30:47;96780.72;;;16.32;62.43
55263;BME280;41125;48.752;9.168;2023-07-20T02:31:20;96778.63;;;16.29;61.96
55263;BME280;41125;48.752;9.168;2023-07-20T02:31:52;96784.81;;;16.26;62.35
55263;BME280;41125;48.752;9.168;2023-07-20T02:32:23;96779.66;;;16.24;62.59
55263;BME280;41125;48.752;9.168;2023-07-20T02:32:54;96779.66;;;16.24;62.69
55263;BME280;41125;48.752;9.168;2023-07-20T02:33:29;96778.38;;;16.22;62.11
55263;BME280;41125;48.752;9.168;2023-07-20T02:34:00;96777.56;;;16.21;62.43
55263;BME280;41125;48.752;9.168;2023-07-20T02:34:31;96784.50;;;16.19;62.65
55263;BME280;41125;48.752;9.168;2023-07-20T02:35:04;96781.31;;;16.17;62.31
55263;BME280;41125;48.752;9.168;2023-07-20T02:35:36;96781.97;;;16.14;62.64
55263;BME280;41125;48.752;9.168;2023-07-20T02:36:10;96780.34;;;16.13;62.03
55263;BME280;41125;48.752;9.168;2023-07-20T02:36:42;96781.16;;;16.13;62.22
55263;BME280;41125;48.752;9.168;2023-07-20T02:37:13;96777.16;;;16.11;62.39
55263;BME280;41125;48.752;9.168;2023-07-20T02:37:48;96781.03;;;16.09;62.52
55263;BME280;41125;48.752;9.168;2023-07-20T02:38:20;96783.28;;;16.07;63.58
55263;BME280;41125;48.752;9.168;2023-07-20T02:38:55;96778.47;;;16.04;62.77
55263;BME280;41125;48.752;9.168;2023-07-20T02:39:27;96780.72;;;16.02;63.04
55263;BME280;41125;48.752;9.168;2023-07-20T02:39:59;96776.72;;;16.00;63.28
55263;BME280;41125;48.752;9.168;2023-07-20T02:40:31;96782.84;;;15.97;64.08
55263;BME280;41125;48.752;9.168;2023-07-20T02:41:02;96780.44;;;15.95;64.40
55263;BME280;41125;48.752;9.168;2023-07-20T02:41:33;96785.81;;;15.92;64.76
55263;BME280;41125;48.752;9.168;2023-07-20T02:42:05;96780.66;;;15.90;64.28
55263;BME280;41125;48.752;9.168;2023-07-20T02:42:40;96779.06;;;15.89;64.00
55263;BME280;41125;48.752;9.168;2023-07-20T02:43:11;96777.91;;;15.90;63.54
55263;BME280;41125;48.752;9.168;2023-07-20T02:43:42;96778.41;;;15.92;63.23
55263;BME280;41125;48.752;9.168;2023-07-20T02:44:14;96774.53;;;15.93;62.68
55263;BME280;41125;48.752;9.168;2023-07-20T02:44:49;96771.44;;;15.95;62.22
55263;BME280;41125;48.752;9.168;2023-07-20T02:45:20;96765.62;;;15.96;62.19
55263;BME280;41125;48.752;9.168;2023-07-20T02:45:53;96780.44;;;15.95;62.70
55263;BME280;41125;48.752;9.168;2023-07-20T02:46:25;96771.91;;;15.97;62.33
55263;BME280;41125;48.752;9.168;2023-07-20T02:46:56;96779.31;;;15.96;63.07
55263;BME280;41125;48.752;9.168;2023-07-20T02:47:27;96774.97;;;15.95;62.87
55263;BME280;41125;48.752;9.168;2023-07-20T02:48:01;96778.84;;;15.94;63.25
55263;BME280;41125;48.752;9.168;2023-07-20T02:48:33;96788.22;;;15.93;62.94
55263;BME280;41125;48.752;9.168;2023-07-20T02:49:06;96784.31;;;15.94;63.33
55263;BME280;41125;48.752;9.168;2023-07-20T02:49:38;96785.47;;;15.93;63.63
55263;BME280;41125;48.752;9.168;2023-07-20T02:50:10;96781.12;;;15.92;63.52
55263;BME280;41125;48.752;9.168;2023-07-20T02:50:43;96790.47;;;15.91;64.03
55263;BME280;41125;48.752;9.168;2023-07-20T02:51:15;96786.13;;;15.90;64.68
55263;BME280;41125;48.752;9.168;2023-07-20T02:51:47;96780.19;;;15.88;64.38
55263;BME280;41125;48.752;9.168;2023-07-20T02:52:19;96780.84;;;15.85;64.11
55263;BME280;41125;48.752;9.168;2023-07-20T02:52:50;96778.44;;;15.84;63.35
55263;BME280;41125;48.752;9.168;2023-07-20T02:53:22;96784.69;;;15.84;63.16
55263;BME280;41125;48.752;9.168;2023-07-20T02:53:54;96786.31;;;15.85;64.41
55263;BME280;41125;48.752;9.168;2023-07-20T02:54:26;96779.22;;;15.84;64.37
55263;BME280;41125;48.752;9.168;2023-07-20T02:54:57;96779.22;;;15.84;63.32
55263;BME280;41125;48.752;9.168;2023-07-20T02:55:28;96779.72;;;15.86;63.08
55263;BME280;41125;48.752;9.168;2023-07-20T02:56:00;96778.56;;;15.87;62.59
55263;BME280;41125;48.752;9.168;2023-07-20T02:56:31;96772.13;;;15.92;62.02
55263;BME280;41125;48.752;9.168;2023-07-20T02:57:03;96781.12;;;15.92;62.82
55263;BME280;41125;48.752;9.168;2023-07-20T02:57:35;96768.44;;;15.88;62.83
55263;BME280;41125;48.752;9.168;2023-07-20T02:58:06;96777.25;;;15.93;62.91
55263;BME280;41125;48.752;9.168;2023-07-20T02:58:41;96782.38;;;15.95;63.88
55263;BME280;41125;48.752;9.168;2023-07-20T02:59:15;96787.53;;;15.96;63.67
55263;BME280;41125;48.752;9.168;2023-07-20T02:59:46;96790.25;;;15.96;64.17
55263;BME280;41125;48.752;9.168;2023-07-20T03:00:18;96786.88;;;15.99;63.96
55263;BME280;41125;48.752;9.168;2023-07-20T03:00:52;96779.94;;;16.02;63.15
55263;BME280;41125;48.752;9.168;2023-07-20T03:01:24;96781.53;;;16.03;61.98